Bristol, VT

8:16 PM EST on November 19, 2019 (GMT -0500)
Lincoln | | Change Station
Active Advisory: Special Statement

Elev 1500 ft 44.13 °N, 73.08 °W | Updated 1 minute ago

Overcast
Overcast
29.8 °F
Feels Like 30 °F
N
0
Wind Variable Wind from WNW
Gusts 0.0 mph

Today
High -- | Low -- °F
--% Chance of Precip.
Yesterday
High -- | Low -- °F
Precip. -- in
Pressure 29.89 in
Visibility 1.8 miles
Clouds Overcast 300 ft
Windchill 30 °F
Dew Point 29 °F
Humidity 97%
Rainfall 0.29 in
Snow Depth Not available.
6:52 AM 4:22 PM
Waning Gibbous, 48% visible
METAR K6B0 200055Z AUTO 00000KT 1 3/4SM BR OVC003 00/00 A2989 RMK AO2 T10021005
Pressure 29.89 in
Visibility 1.8 miles
Clouds Overcast 300 ft
Windchill 30 °F
Dew Point 29 °F
Humidity 97%
Rainfall 0.29 in
Snow Depth Not available.
6:52 AM 4:22 PM
Waning Gibbous, 48% visible
METAR K6B0 200055Z AUTO 00000KT 1 3/4SM BR OVC003 00/00 A2989 RMK AO2 T10021005

Get Your Daily Forecast Email!

Thanks for signing up!

Be on the lookout for a verification email in your inbox.

You'll start receiving severe weather alerts in your inbox..

×

10-Day Weather Forecast

Almanac

Astronomy

Nov. 19, 2019 Rise Set
Actual Time
Civil Twilight
Nautical Twilight
Astronomical Twilight
Moon
Length of Visible Light
Length of Day
Tomorrow will be .
, % of the Moon is Illuminated

Today's Extremes

State Highs State Lows

Community

WunderPhotos

Category 6

Welcome to Category 6. This is the collective home for Weather Underground's featured writeups by Dr. Jeff Masters (right), Bob Henson (left), Chris Burt, and other regular contributors.

Nearby

Air Quality

  Air Quality AQ Index Pollutant
Not available.

Snow Depth

Station Depth Elevation

Earthquake Activity

City Distance Mag. Time & Date
Minimum magnitude displayed is 2.5.

Coastal Water Temperatures

Place Temperature

Stations

Nearby Weather Stations

Station Location Temp. Windchill Dew Point Humidity Wind Precip. Elev Updated Type
                   

Watches & Warnings

Special Statement
Issued: 2:33 PM EST Nov. 19, 2019 – National Weather Service

... Special Weather Statement...

Intermittent, patchy drizzle or light flurries will be possible
across portions of the Champlain Valley and portions of the
Adirondacks in Essex County, New York. There is the potential for
some freezing drizzle as temperatures overnight will hover around
freezing.

Any freezing drizzle could glaze elevated surfaces. Ground
accumulations are not expected at this time.



233 PM EST Tue Nov 19 2019

... Special Weather Statement...

Intermittent, patchy drizzle or light flurries will be possible
across portions of the Champlain Valley and portions of the
Adirondacks in Essex County, New York. There is the potential for
some freezing drizzle as temperatures overnight will hover around
freezing.

Any freezing drizzle could glaze elevated surfaces. Ground
accumulations are not expected at this time.